Sun Valley, ID

5:55 AM MDT on May 26, 2015 (GMT -0600)
RAWS | | Change Station
CLOSE
Current Station
Personal Weather Station
Location: Sun Valley, ID
Elevation: 7628 ft
Nearby Weather Stations

Elev 7628 ft 43.63 °N, 113.96 °W | Updated 51 minutes ago

Partly Cloudy
Partly Cloudy
42 °F
Feels Like 40 °F
N
4
Wind Variable Wind from SW
Gusts 5.0 mph

Today
High -- | Low -- °F
--% Chance of Precip.
Yesterday
High -- | Low -- °F
Precip. -- in
6:02 AM 9:06 PM
First Quarter, 57% visible
Pressure 29.87 in
Visibility -9999.0 miles
Clouds
Windchill 40 °F
Dew Point 37 °F
Humidity 83%
Rainfall in
Snow Depth Not available.
UV Not available.
Pollen 7.60 out of 12
Air Quality Not available.
Flu Activity Sporadic
METAR KSNT 261151Z AUTO 09003KT 03/02 A3006 RMK AO1 SLP114 70022 T00330022 10039 20011 53005

More Conditions Fewer Conditions

Pressure 29.87 in
Visibility -9999.0 miles
Clouds
Windchill 40 °F
Dew Point 37 °F
Humidity 83%
Rainfall in
Snow Depth Not available.
UV Not available.
Pollen 7.60 out of 12
Air Quality Not available.
Flu Activity Sporadic
METAR KSNT 261151Z AUTO 09003KT 03/02 A3006 RMK AO1 SLP114 70022 T00330022 10039 20011 53005

More Conditions Fewer Conditions

10-Day Weather Forecast

Almanac

Astronomy

May. 26, 2015 Rise Set
Actual Time
Civil Twilight
Nautical Twilight
Astronomical Twilight
Moon
Length of Visible Light
Length of Day
Tomorrow will be .
, % of the Moon is Illuminated

Today's Extremes

State Highs State Lows

Community

WunderPhotos

Upload Photos

1,824,304 photos uploaded!

WunderBlogs® & News

Nearby

Air Quality

  Air Quality AQ Index Pollutant
Not available.

Snow Depth

Station Depth Elevation

Earthquake Activity

City Distance Mag. Time & Date
Minimum magnitude displayed is 2.5.

Coastal Water Temperatures

Place Temperature

Stations

Nearby Weather Stations

Station Location Temp. Windchill Dew Point Humidity Wind Precip. Elev Updated Type